Time;durP1;ratioP1;P1;durP2;ratioP2;P2;SDS_P1;SDS_P2;PMS_P1;PMS_P2;Temp;Humidity;BMP_temperature;BMP_pressure;BME280_temperature;BME280_humidity;BME280_pressure;Samples;Min_cycle;Max_cycle;Signal;HPM_P1;HPM_P2
2023/12/18 00:02:15;;;;;;;23.97;15.27;;;;;;;;;;4993690;28;20184;-82
2023/12/18 00:04:42;;;;;;;28.67;15.37;;;;;;;;;;4978546;28;20203;-82
2023/12/18 00:07:08;;;;;;;23.33;14.67;;;;;;;;;;4961900;28;20280;-82
2023/12/18 00:09:34;;;;;;;33.77;14.80;;;;;;;;;;4975179;28;20219;-82
2023/12/18 00:12:00;;;;;;;27.10;14.90;;;;;;;;;;4993064;28;20671;-82
2023/12/18 00:14:26;;;;;;;25.73;15.37;;;;;;;;;;4980814;28;20571;-82
2023/12/18 00:16:52;;;;;;;26.73;15.73;;;;;;;;;;4995412;28;20204;-82
2023/12/18 00:19:19;;;;;;;29.50;15.73;;;;;;;;;;4992690;28;20226;-82
2023/12/18 00:21:45;;;;;;;28.50;15.83;;;;;;;;;;4976329;28;20191;-82
2023/12/18 00:24:11;;;;;;;32.07;16.60;;;;;;;;;;4991726;28;20187;-82
2023/12/18 00:26:37;;;;;;;26.53;16.33;;;;;;;;;;4990828;28;20187;-82
2023/12/18 00:29:03;;;;;;;30.83;16.80;;;;;;;;;;4973220;28;20196;-82
2023/12/18 00:31:29;;;;;;;35.73;17.30;;;;;;;;;;4988354;28;20386;-82
2023/12/18 00:33:55;;;;;;;28.87;16.67;;;;;;;;;;4990354;28;20202;-82
2023/12/18 00:36:21;;;;;;;29.63;16.47;;;;;;;;;;4988713;28;20198;-81
2023/12/18 00:38:48;;;;;;;28.93;17.00;;;;;;;;;;4969056;28;20659;-82
2023/12/18 00:41:14;;;;;;;31.73;17.03;;;;;;;;;;4988174;28;20216;-82
2023/12/18 00:43:40;;;;;;;33.90;17.77;;;;;;;;;;4958459;28;20206;-82
2023/12/18 00:46:06;;;;;;;28.53;16.90;;;;;;;;;;4986954;28;20274;-82
2023/12/18 00:48:32;;;;;;;30.77;17.00;;;;;;;;;;4961857;28;20634;-82
2023/12/18 00:50:59;;;;;;;31.20;17.13;;;;;;;;;;4972238;28;20226;-82
2023/12/18 00:53:25;;;;;;;31.33;17.67;;;;;;;;;;4971762;28;20219;-82
2023/12/18 00:55:51;;;;;;;30.37;17.53;;;;;;;;;;4970732;28;20204;-81
2023/12/18 00:58:17;;;;;;;30.30;18.50;;;;;;;;;;4972189;28;20212;-82
2023/12/18 01:00:43;;;;;;;29.80;17.00;;;;;;;;;;4986168;28;20239;-82
2023/12/18 01:03:09;;;;;;;35.27;18.60;;;;;;;;;;4970113;28;20295;-82
2023/12/18 01:05:35;;;;;;;31.53;17.90;;;;;;;;;;4977837;28;20188;-82
2023/12/18 01:08:01;;;;;;;31.63;17.90;;;;;;;;;;4973130;28;20204;-82
2023/12/18 01:10:27;;;;;;;32.30;18.43;;;;;;;;;;4989962;28;20212;-82
2023/12/18 01:12:53;;;;;;;35.10;18.50;;;;;;;;;;4991354;28;20652;-82
2023/12/18 01:15:19;;;;;;;31.43;18.17;;;;;;;;;;4987308;28;20339;-80
2023/12/18 01:17:46;;;;;;;36.00;19.10;;;;;;;;;;4969641;28;20195;-82
2023/12/18 01:20:12;;;;;;;35.43;18.80;;;;;;;;;;4971154;28;20208;-81
2023/12/18 01:22:38;;;;;;;36.83;18.97;;;;;;;;;;4972404;28;20791;-82
2023/12/18 01:25:04;;;;;;;34.47;18.10;;;;;;;;;;4990397;28;20607;-82
2023/12/18 01:27:30;;;;;;;35.80;18.47;;;;;;;;;;4973284;28;20183;-82
2023/12/18 01:29:56;;;;;;;32.57;17.63;;;;;;;;;;4987469;28;20199;-82
2023/12/18 01:32:23;;;;;;;32.33;18.60;;;;;;;;;;4971646;28;20184;-82
2023/12/18 01:34:49;;;;;;;28.50;16.43;;;;;;;;;;4973766;28;20270;-81
2023/12/18 01:37:15;;;;;;;30.53;17.30;;;;;;;;;;4989638;28;20176;-82
2023/12/18 01:39:41;;;;;;;33.70;18.13;;;;;;;;;;4966868;28;20735;-82
2023/12/18 01:42:07;;;;;;;30.30;17.03;;;;;;;;;;4972441;28;20574;-82
2023/12/18 01:44:33;;;;;;;35.27;19.33;;;;;;;;;;4990868;28;20270;-81
2023/12/18 01:46:59;;;;;;;32.77;18.87;;;;;;;;;;4989503;28;20187;-82
2023/12/18 01:49:25;;;;;;;31.50;19.07;;;;;;;;;;4989202;28;20216;-82
2023/12/18 01:51:52;;;;;;;33.67;19.47;;;;;;;;;;4989442;28;20184;-82
2023/12/18 01:54:21;;;;;;;30.93;18.93;;;;;;;;;;4989852;28;20684;-82
2023/12/18 01:56:47;;;;;;;32.00;19.87;;;;;;;;;;4972663;28;20187;-82
2023/12/18 01:59:14;;;;;;;34.60;20.20;;;;;;;;;;4960047;28;20212;-82
2023/12/18 02:01:42;;;;;;;30.57;19.27;;;;;;;;;;4989845;28;20743;-82
2023/12/18 02:04:08;;;;;;;29.60;17.70;;;;;;;;;;4961439;28;20251;-82
2023/12/18 02:06:34;;;;;;;30.13;18.23;;;;;;;;;;4977146;28;20192;-82
2023/12/18 02:09:00;;;;;;;32.30;19.90;;;;;;;;;;4961712;28;20722;-82
2023/12/18 02:11:27;;;;;;;28.60;17.90;;;;;;;;;;5007516;28;20188;-81
2023/12/18 02:13:53;;;;;;;34.13;19.53;;;;;;;;;;4993289;28;20231;-82
2023/12/18 02:16:19;;;;;;;30.90;19.03;;;;;;;;;;4993398;28;20294;-82
2023/12/18 02:18:46;;;;;;;28.33;17.67;;;;;;;;;;4993198;28;20215;-81
2023/12/18 02:21:12;;;;;;;29.97;18.57;;;;;;;;;;4993247;28;20207;-82
2023/12/18 02:23:38;;;;;;;29.77;18.27;;;;;;;;;;4993265;28;20218;-82
2023/12/18 02:26:04;;;;;;;28.90;18.30;;;;;;;;;;4971000;28;20254;-82
2023/12/18 02:28:31;;;;;;;29.63;17.67;;;;;;;;;;4965967;28;20187;-82
2023/12/18 02:30:57;;;;;;;33.20;20.00;;;;;;;;;;4964336;28;20212;-82
2023/12/18 02:33:23;;;;;;;28.30;17.53;;;;;;;;;;5009668;28;20199;-82
2023/12/18 02:35:50;;;;;;;29.73;18.43;;;;;;;;;;4992946;28;20364;-82
2023/12/18 02:38:16;;;;;;;26.87;16.87;;;;;;;;;;4975209;28;20218;-82
2023/12/18 02:40:42;;;;;;;28.90;17.80;;;;;;;;;;4975598;28;20230;-81
2023/12/18 02:43:08;;;;;;;29.30;17.03;;;;;;;;;;4968933;28;20413;-81
2023/12/18 02:45:34;;;;;;;27.23;16.27;;;;;;;;;;4976063;28;20573;-82
2023/12/18 02:48:00;;;;;;;29.53;17.80;;;;;;;;;;4995300;28;20615;-82
2023/12/18 02:50:27;;;;;;;27.40;16.70;;;;;;;;;;4977210;28;20307;-82
2023/12/18 02:52:53;;;;;;;31.77;18.97;;;;;;;;;;4988100;28;20502;-82
2023/12/18 02:55:19;;;;;;;24.67;16.63;;;;;;;;;;4992927;28;20187;-82
2023/12/18 02:57:45;;;;;;;26.57;16.50;;;;;;;;;;4993418;28;20705;-82
2023/12/18 03:00:11;;;;;;;26.40;16.30;;;;;;;;;;4970471;28;20207;-82
2023/12/18 03:02:38;;;;;;;28.37;16.90;;;;;;;;;;4970315;28;20692;-81
2023/12/18 03:05:04;;;;;;;27.27;17.07;;;;;;;;;;4988864;28;20648;-82
2023/12/18 03:07:31;;;;;;;27.67;17.67;;;;;;;;;;4996284;28;20569;-81
2023/12/18 03:09:57;;;;;;;26.90;17.40;;;;;;;;;;4968625;28;20592;-81
2023/12/18 03:12:23;;;;;;;41.53;25.70;;;;;;;;;;4977958;28;20200;-82
2023/12/18 03:14:49;;;;;;;31.10;20.50;;;;;;;;;;4978466;28;20842;-82
2023/12/18 03:17:15;;;;;;;28.70;17.87;;;;;;;;;;4985587;28;20184;-81
2023/12/18 03:19:41;;;;;;;29.77;18.37;;;;;;;;;;4972824;28;20261;-82
2023/12/18 03:22:07;;;;;;;27.20;17.23;;;;;;;;;;4967546;28;20808;-82
2023/12/18 03:24:34;;;;;;;25.83;16.83;;;;;;;;;;4995659;28;20195;-82
2023/12/18 03:27:00;;;;;;;27.70;16.60;;;;;;;;;;4978201;28;20653;-81
2023/12/18 03:29:26;;;;;;;27.10;17.43;;;;;;;;;;4992847;28;20318;-82
2023/12/18 03:31:52;;;;;;;29.33;17.93;;;;;;;;;;4994893;28;20727;-82
2023/12/18 03:34:18;;;;;;;28.80;17.17;;;;;;;;;;4983554;28;20238;-82
2023/12/18 03:36:44;;;;;;;27.37;17.53;;;;;;;;;;4994240;28;20225;-81
2023/12/18 03:39:10;;;;;;;28.53;17.43;;;;;;;;;;4965513;28;20231;-81
2023/12/18 03:41:36;;;;;;;24.83;16.53;;;;;;;;;;4991769;28;20216;-82
2023/12/18 03:44:03;;;;;;;27.17;16.83;;;;;;;;;;4976830;28;20192;-82
2023/12/18 03:46:29;;;;;;;30.83;18.90;;;;;;;;;;4987876;28;20204;-81
2023/12/18 03:48:55;;;;;;;28.40;18.10;;;;;;;;;;4994756;28;20226;-82
2023/12/18 03:51:21;;;;;;;28.87;17.37;;;;;;;;;;4976033;28;20622;-81
2023/12/18 03:53:47;;;;;;;30.13;18.60;;;;;;;;;;4993821;28;20771;-82
2023/12/18 03:56:13;;;;;;;27.60;17.93;;;;;;;;;;4975650;28;20198;-82
2023/12/18 03:58:39;;;;;;;29.07;17.63;;;;;;;;;;4975440;28;20223;-82
2023/12/18 04:01:05;;;;;;;32.83;19.43;;;;;;;;;;4993710;28;20196;-82
2023/12/18 04:03:32;;;;;;;31.90;19.07;;;;;;;;;;4976301;28;20555;-82
2023/12/18 04:05:58;;;;;;;30.83;18.80;;;;;;;;;;4992605;28;20513;-82
2023/12/18 04:08:24;;;;;;;33.93;18.87;;;;;;;;;;4966683;28;20673;-83
2023/12/18 04:10:50;;;;;;;30.40;18.73;;;;;;;;;;4980001;28;20216;-82
2023/12/18 04:13:16;;;;;;;33.60;19.63;;;;;;;;;;4989188;28;20253;-82
2023/12/18 04:15:42;;;;;;;32.00;19.47;;;;;;;;;;4976036;28;20291;-81
2023/12/18 04:18:08;;;;;;;32.60;19.23;;;;;;;;;;4991463;28;20600;-81
2023/12/18 04:20:35;;;;;;;31.77;19.53;;;;;;;;;;4975053;28;20220;-81
2023/12/18 04:23:01;;;;;;;27.80;18.40;;;;;;;;;;4991066;28;20184;-81
2023/12/18 04:25:27;;;;;;;31.40;18.40;;;;;;;;;;4991586;28;20199;-81
2023/12/18 04:27:53;;;;;;;31.73;19.57;;;;;;;;;;4963225;28;20727;-82
2023/12/18 04:30:19;;;;;;;32.97;19.47;;;;;;;;;;4974712;28;20686;-81
2023/12/18 04:32:45;;;;;;;32.10;19.50;;;;;;;;;;4974969;28;20188;-82
2023/12/18 04:35:11;;;;;;;33.23;21.00;;;;;;;;;;4963720;28;20283;-81
2023/12/18 04:37:38;;;;;;;29.40;18.63;;;;;;;;;;4992919;28;20208;-82
2023/12/18 04:40:04;;;;;;;28.63;19.03;;;;;;;;;;4992324;28;20688;-82
2023/12/18 04:42:31;;;;;;;30.90;19.50;;;;;;;;;;4992882;28;20200;-82
2023/12/18 04:44:58;;;;;;;33.00;19.67;;;;;;;;;;4975919;28;20278;-82
2023/12/18 04:47:25;;;;;;;29.13;18.80;;;;;;;;;;4991058;28;20270;-82
2023/12/18 04:49:51;;;;;;;31.37;19.13;;;;;;;;;;4990960;28;20207;-82
2023/12/18 04:52:17;;;;;;;29.73;18.27;;;;;;;;;;4979207;28;20191;-82
2023/12/18 04:54:43;;;;;;;31.07;19.30;;;;;;;;;;4991800;28;20271;-82
2023/12/18 04:57:09;;;;;;;32.53;19.27;;;;;;;;;;4974808;28;20191;-82
2023/12/18 04:59:35;;;;;;;28.90;19.00;;;;;;;;;;4974608;28;20215;-82
2023/12/18 05:02:01;;;;;;;28.13;18.03;;;;;;;;;;4982176;28;20270;-82
2023/12/18 05:04:27;;;;;;;30.73;19.27;;;;;;;;;;4991835;28;20196;-82
2023/12/18 05:06:53;;;;;;;28.47;17.80;;;;;;;;;;4977508;28;20187;-82
2023/12/18 05:09:20;;;;;;;29.95;20.40;;;;;;;;;;4989642;28;20444;-82
2023/12/18 05:11:46;;;;;;;27.73;17.40;;;;;;;;;;4977070;28;20536;-81
2023/12/18 05:14:12;;;;;;;30.53;18.27;;;;;;;;;;4997854;28;20206;-82
2023/12/18 05:16:38;;;;;;;30.70;18.63;;;;;;;;;;5000459;28;20226;-82
2023/12/18 05:19:04;;;;;;;29.10;18.47;;;;;;;;;;4974312;28;20218;-81
2023/12/18 05:21:31;;;;;;;31.80;18.23;;;;;;;;;;4988609;28;20204;-81
2023/12/18 05:23:57;;;;;;;31.53;18.87;;;;;;;;;;4999289;28;20208;-81
2023/12/18 05:26:23;;;;;;;31.43;18.27;;;;;;;;;;4993177;28;20275;-82
2023/12/18 05:28:49;;;;;;;29.80;18.53;;;;;;;;;;4995930;28;20278;-82
2023/12/18 05:31:16;;;;;;;27.10;17.00;;;;;;;;;;4968507;28;20595;-82
2023/12/18 05:33:43;;;;;;;27.87;17.17;;;;;;;;;;4995713;28;20199;-81
2023/12/18 05:36:09;;;;;;;28.77;17.80;;;;;;;;;;4995716;28;20206;-82
2023/12/18 05:38:35;;;;;;;24.90;15.43;;;;;;;;;;4979072;28;20664;-82
2023/12/18 05:41:01;;;;;;;28.60;18.13;;;;;;;;;;4993332;28;20210;-82
2023/12/18 05:43:27;;;;;;;28.07;17.83;;;;;;;;;;4993566;28;20188;-81
2023/12/18 05:45:53;;;;;;;25.93;16.97;;;;;;;;;;4985025;28;20267;-82
2023/12/18 05:48:20;;;;;;;24.60;15.13;;;;;;;;;;4977420;28;20196;-82
2023/12/18 05:50:46;;;;;;;23.13;15.37;;;;;;;;;;4995017;28;20223;-82
2023/12/18 05:53:12;;;;;;;25.07;15.93;;;;;;;;;;4992712;28;20188;-82
2023/12/18 05:55:38;;;;;;;27.07;16.50;;;;;;;;;;4968999;28;20235;-82
2023/12/18 05:58:04;;;;;;;25.23;15.90;;;;;;;;;;4976389;28;20227;-82
2023/12/18 06:00:30;;;;;;;23.37;15.43;;;;;;;;;;4988548;28;20495;-82
2023/12/18 06:02:56;;;;;;;24.63;15.87;;;;;;;;;;4959670;28;20287;-82
2023/12/18 06:05:22;;;;;;;25.13;16.07;;;;;;;;;;4987366;28;20242;-82
2023/12/18 06:07:48;;;;;;;26.13;16.30;;;;;;;;;;4972043;28;20195;-81
2023/12/18 06:10:15;;;;;;;24.73;16.23;;;;;;;;;;4987842;28;20237;-82
2023/12/18 06:12:41;;;;;;;24.27;15.87;;;;;;;;;;4963516;28;20665;-81
2023/12/18 06:15:08;;;;;;;23.83;15.60;;;;;;;;;;4966613;28;20282;-82
2023/12/18 06:17:34;;;;;;;24.73;16.67;;;;;;;;;;4988413;28;20183;-82
2023/12/18 06:20:00;;;;;;;25.00;16.27;;;;;;;;;;4988688;28;20313;-79
2023/12/18 06:22:26;;;;;;;23.70;15.87;;;;;;;;;;4972972;28;20188;-81
2023/12/18 06:24:52;;;;;;;25.20;16.10;;;;;;;;;;4974635;28;20187;-80
2023/12/18 06:27:18;;;;;;;25.63;15.90;;;;;;;;;;4988507;28;20302;-84
2023/12/18 06:29:44;;;;;;;27.60;16.80;;;;;;;;;;4957738;28;20215;-85
2023/12/18 06:32:10;;;;;;;25.75;17.95;;;;;;;;;;4972460;28;20520;-83
2023/12/18 06:34:36;;;;;;;25.33;16.73;;;;;;;;;;4971367;28;20195;-87
2023/12/18 06:37:03;;;;;;;24.17;15.53;;;;;;;;;;4963823;28;20720;-83
2023/12/18 06:39:29;;;;;;;24.63;16.07;;;;;;;;;;4989116;28;20491;-80
2023/12/18 06:41:55;;;;;;;25.67;17.67;;;;;;;;;;4970062;28;20180;-79
2023/12/18 06:44:21;;;;;;;27.20;17.60;;;;;;;;;;4991259;28;20180;-84
2023/12/18 06:46:48;;;;;;;28.60;18.53;;;;;;;;;;4964824;28;20196;-84
2023/12/18 06:49:14;;;;;;;27.07;17.63;;;;;;;;;;4977583;28;20242;-83
2023/12/18 06:51:40;;;;;;;29.67;19.20;;;;;;;;;;4989087;28;20311;-84
2023/12/18 06:54:06;;;;;;;27.07;17.53;;;;;;;;;;4965283;28;20231;-84
2023/12/18 06:56:33;;;;;;;30.17;18.93;;;;;;;;;;4989748;28;20192;-81
2023/12/18 06:58:59;;;;;;;25.70;16.80;;;;;;;;;;4973546;28;20200;-81
2023/12/18 07:01:25;;;;;;;26.67;17.93;;;;;;;;;;4974891;28;20207;-84
2023/12/18 07:03:51;;;;;;;26.00;16.63;;;;;;;;;;4980313;28;20191;-83
2023/12/18 07:06:17;;;;;;;25.90;19.17;;;;;;;;;;4980921;28;20428;-84
2023/12/18 07:08:44;;;;;;;24.60;16.63;;;;;;;;;;4980919;28;20215;-84
2023/12/18 07:11:10;;;;;;;25.97;17.30;;;;;;;;;;4985825;28;20543;-84
2023/12/18 07:13:36;;;;;;;24.83;16.63;;;;;;;;;;4978783;28;20724;-88
2023/12/18 07:16:02;;;;;;;31.97;22.07;;;;;;;;;;4976945;28;20199;-88
2023/12/18 07:18:28;;;;;;;33.47;22.73;;;;;;;;;;4977693;28;20900;-85
2023/12/18 07:20:55;;;;;;;30.13;20.70;;;;;;;;;;4961169;28;20231;-85
2023/12/18 07:23:21;;;;;;;33.53;22.77;;;;;;;;;;4973237;28;20196;-84
2023/12/18 07:25:47;;;;;;;27.77;19.33;;;;;;;;;;4964171;28;20263;-84
2023/12/18 07:28:13;;;;;;;33.63;22.57;;;;;;;;;;4995408;28;20191;-84
2023/12/18 07:30:39;;;;;;;31.03;21.50;;;;;;;;;;4976624;28;20716;-84
2023/12/18 07:33:05;;;;;;;56.87;43.37;;;;;;;;;;4976573;28;20253;-84
2023/12/18 07:35:32;;;;;;;41.70;29.87;;;;;;;;;;4962284;28;20242;-84
2023/12/18 07:37:58;;;;;;;35.60;26.33;;;;;;;;;;4996443;28;20211;-84
2023/12/18 07:40:24;;;;;;;48.83;36.73;;;;;;;;;;4995127;28;20695;-84
2023/12/18 07:42:50;;;;;;;37.33;25.43;;;;;;;;;;4963554;28;20206;-85
2023/12/18 07:45:16;;;;;;;29.43;20.60;;;;;;;;;;4978588;28;20180;-84
2023/12/18 07:47:43;;;;;;;30.47;19.90;;;;;;;;;;4978533;28;20192;-84
2023/12/18 07:50:09;;;;;;;29.87;20.23;;;;;;;;;;4995226;28;20238;-84
2023/12/18 07:52:35;;;;;;;32.10;22.23;;;;;;;;;;4993065;28;20188;-84
2023/12/18 07:55:02;;;;;;;38.23;27.27;;;;;;;;;;4979614;28;20188;-84
2023/12/18 07:57:29;;;;;;;33.77;22.07;;;;;;;;;;4968174;28;20276;-84
2023/12/18 07:59:56;;;;;;;36.03;23.73;;;;;;;;;;4979893;28;20687;-84
2023/12/18 08:02:22;;;;;;;30.13;19.90;;;;;;;;;;4977872;28;20564;-84
2023/12/18 08:04:48;;;;;;;29.77;18.33;;;;;;;;;;4979631;28;20188;-84
2023/12/18 08:07:14;;;;;;;28.10;17.77;;;;;;;;;;4979738;28;20237;-84
2023/12/18 08:09:44;;;;;;;25.50;16.53;;;;;;;;;;4963356;28;20238;-84
2023/12/18 08:12:10;;;;;;;26.70;16.83;;;;;;;;;;4978838;28;20207;-84
2023/12/18 08:14:36;;;;;;;24.93;17.40;;;;;;;;;;4980260;28;20195;-84
2023/12/18 08:17:03;;;;;;;25.03;16.57;;;;;;;;;;4980277;28;20453;-84
2023/12/18 08:19:29;;;;;;;25.87;16.87;;;;;;;;;;4976703;28;20228;-84
2023/12/18 08:21:56;;;;;;;24.13;15.63;;;;;;;;;;4999889;28;20181;-83
2023/12/18 08:24:23;;;;;;;29.17;18.27;;;;;;;;;;4966660;28;20199;-84
2023/12/18 08:26:49;;;;;;;33.13;18.40;;;;;;;;;;4967835;28;20207;-84
2023/12/18 08:29:15;;;;;;;29.50;18.97;;;;;;;;;;5000037;28;20218;-84
2023/12/18 08:31:42;;;;;;;32.50;18.40;;;;;;;;;;4967462;28;20246;-84
2023/12/18 08:34:09;;;;;;;25.17;16.60;;;;;;;;;;4982342;28;20659;-85
2023/12/18 08:36:36;;;;;;;27.13;17.07;;;;;;;;;;4963320;28;20190;-84
2023/12/18 08:39:08;;;;;;;23.27;15.80;;;;;;;;;;4963607;28;20212;-84
2023/12/18 08:41:35;;;;;;;23.23;15.70;;;;;;;;;;4962117;28;20191;-84
2023/12/18 08:44:01;;;;;;;21.53;14.93;;;;;;;;;;4982994;28;20215;-84
2023/12/18 08:46:27;;;;;;;26.37;16.97;;;;;;;;;;4977233;28;20231;-84
2023/12/18 08:48:53;;;;;;;22.53;15.27;;;;;;;;;;4962392;28;20211;-84
2023/12/18 08:51:20;;;;;;;23.57;16.23;;;;;;;;;;4986366;28;20211;-84
2023/12/18 08:53:46;;;;;;;25.70;16.67;;;;;;;;;;4966116;28;20187;-85
2023/12/18 08:56:12;;;;;;;25.23;16.27;;;;;;;;;;4976545;28;20222;-85
2023/12/18 08:58:39;;;;;;;23.43;16.93;;;;;;;;;;4977987;28;20204;-85
2023/12/18 09:01:06;;;;;;;24.97;16.27;;;;;;;;;;4989723;28;20204;-84
2023/12/18 09:03:35;;;;;;;24.77;16.97;;;;;;;;;;4984717;28;20270;-85
2023/12/18 09:06:02;;;;;;;29.27;18.20;;;;;;;;;;4969427;28;20191;-84
2023/12/18 09:08:29;;;;;;;24.30;17.03;;;;;;;;;;4976622;28;20190;-84
2023/12/18 09:10:56;;;;;;;28.30;17.87;;;;;;;;;;4966781;28;20743;-84
2023/12/18 09:13:23;;;;;;;28.57;19.30;;;;;;;;;;4959589;28;20718;-84
2023/12/18 09:15:50;;;;;;;27.93;18.87;;;;;;;;;;4969114;28;20247;-84
2023/12/18 09:18:16;;;;;;;27.87;18.10;;;;;;;;;;4977983;28;20215;-84
2023/12/18 09:20:43;;;;;;;26.80;18.20;;;;;;;;;;4967287;28;20211;-84
2023/12/18 09:23:09;;;;;;;31.37;19.80;;;;;;;;;;4976803;28;20194;-84
2023/12/18 09:25:35;;;;;;;29.53;19.60;;;;;;;;;;4969478;28;20667;-85
2023/12/18 09:28:01;;;;;;;30.60;20.00;;;;;;;;;;4996971;28;20192;-84
2023/12/18 09:30:27;;;;;;;28.87;19.37;;;;;;;;;;4969847;28;20235;-85
2023/12/18 09:32:54;;;;;;;29.47;19.93;;;;;;;;;;4981765;28;20226;-84
2023/12/18 09:35:20;;;;;;;30.60;19.80;;;;;;;;;;4971762;28;20258;-84
2023/12/18 09:37:46;;;;;;;29.20;20.50;;;;;;;;;;4995975;28;20180;-85
2023/12/18 09:40:13;;;;;;;31.13;20.10;;;;;;;;;;4966958;28;20216;-84
2023/12/18 09:42:39;;;;;;;30.37;19.63;;;;;;;;;;4977512;28;20188;-85
2023/12/18 09:45:06;;;;;;;24.77;17.67;;;;;;;;;;4993385;28;20180;-85
2023/12/18 09:47:32;;;;;;;27.53;18.60;;;;;;;;;;4977156;28;20196;-85
2023/12/18 09:49:58;;;;;;;26.73;18.97;;;;;;;;;;4979237;28;20315;-85
2023/12/18 09:52:26;;;;;;;27.50;18.83;;;;;;;;;;4985276;28;20585;-85
2023/12/18 09:54:52;;;;;;;27.57;18.50;;;;;;;;;;4969158;28;20192;-84
2023/12/18 09:57:20;;;;;;;26.53;18.13;;;;;;;;;;4961613;28;20203;-84
2023/12/18 09:59:46;;;;;;;29.10;19.50;;;;;;;;;;4969357;28;20715;-84
2023/12/18 10:02:13;;;;;;;24.73;17.03;;;;;;;;;;4977841;28;20223;-85
2023/12/18 10:04:43;;;;;;;23.50;17.33;;;;;;;;;;4976709;28;20199;-85
2023/12/18 10:07:09;;;;;;;24.23;16.97;;;;;;;;;;4977667;28;20184;-84
2023/12/18 10:09:36;;;;;;;23.43;16.77;;;;;;;;;;4966512;28;20226;-84
2023/12/18 10:12:06;;;;;;;24.27;16.70;;;;;;;;;;4993155;28;20199;-85
2023/12/18 10:14:33;;;;;;;23.43;16.90;;;;;;;;;;4993802;28;20263;-84
2023/12/18 10:17:00;;;;;;;23.87;16.83;;;;;;;;;;4965561;28;20206;-83
2023/12/18 10:19:27;;;;;;;25.10;17.00;;;;;;;;;;4982652;28;20212;-84
2023/12/18 10:21:57;;;;;;;25.03;17.50;;;;;;;;;;4976486;28;20202;-84
2023/12/18 10:24:23;;;;;;;26.47;17.50;;;;;;;;;;4970873;28;20212;-84
2023/12/18 10:26:50;;;;;;;24.70;17.13;;;;;;;;;;4979814;28;20252;-85
2023/12/18 10:29:16;;;;;;;26.93;18.70;;;;;;;;;;4996158;28;20192;-85
2023/12/18 10:31:42;;;;;;;27.53;18.90;;;;;;;;;;4979905;28;20234;-85
2023/12/18 10:34:09;;;;;;;28.13;19.40;;;;;;;;;;4959597;28;20187;-85
2023/12/18 10:36:35;;;;;;;26.83;18.70;;;;;;;;;;4990771;28;20188;-84
2023/12/18 10:39:02;;;;;;;26.97;19.50;;;;;;;;;;4978827;28;20472;-84
2023/12/18 10:41:30;;;;;;;29.50;19.50;;;;;;;;;;4983091;28;20188;-85
2023/12/18 10:43:56;;;;;;;25.50;18.27;;;;;;;;;;4979509;28;20196;-85
2023/12/18 10:46:25;;;;;;;25.57;18.03;;;;;;;;;;4975788;28;20203;-84
2023/12/18 10:48:51;;;;;;;28.10;18.37;;;;;;;;;;5000269;28;20191;-85
2023/12/18 10:51:21;;;;;;;27.33;17.70;;;;;;;;;;4983469;28;20222;-85
2023/12/18 10:53:48;;;;;;;24.53;16.77;;;;;;;;;;4968827;28;20211;-85
2023/12/18 10:56:16;;;;;;;24.10;16.17;;;;;;;;;;4976093;28;20262;-84
2023/12/18 10:58:43;;;;;;;23.00;17.17;;;;;;;;;;4968406;28;20237;-85
2023/12/18 11:01:10;;;;;;;22.60;17.50;;;;;;;;;;4974595;28;20273;-85
2023/12/18 11:03:36;;;;;;;26.57;17.57;;;;;;;;;;4968681;28;20184;-85
2023/12/18 11:06:03;;;;;;;24.30;18.00;;;;;;;;;;4968895;28;20675;-85
2023/12/18 11:08:29;;;;;;;23.20;16.87;;;;;;;;;;4962855;28;20271;-85
2023/12/18 11:10:58;;;;;;;26.93;17.87;;;;;;;;;;4956710;28;20207;-79
2023/12/18 11:13:40;;;;;;;24.00;17.33;;;;;;;;;;4981735;28;20198;-80
2023/12/18 11:16:16;;;;;;;23.30;16.90;;;;;;;;;;5003247;28;20821;-80
2023/12/18 11:18:52;;;;;;;24.27;17.47;;;;;;;;;;4991138;28;20211;-76
2023/12/18 11:21:18;;;;;;;24.00;16.47;;;;;;;;;;4987774;28;20227;-80
2023/12/18 11:23:50;;;;;;;26.87;17.37;;;;;;;;;;4964679;28;20202;-78
2023/12/18 11:26:16;;;;;;;22.10;15.70;;;;;;;;;;4990651;28;20183;-79
2023/12/18 11:28:44;;;;;;;24.20;16.53;;;;;;;;;;4999170;28;20222;-80
2023/12/18 11:31:13;;;;;;;22.67;16.63;;;;;;;;;;4989783;28;20227;-79
2023/12/18 11:33:59;;;;;;;22.03;15.97;;;;;;;;;;4992007;28;20203;-82
2023/12/18 11:36:25;;;;;;;23.77;16.07;;;;;;;;;;4978999;28;20195;-88
2023/12/18 11:38:51;;;;;;;23.30;17.87;;;;;;;;;;4972857;28;20223;-79
2023/12/18 11:41:36;;;;;;;24.03;17.57;;;;;;;;;;4973058;28;20246;-83
2023/12/18 11:44:06;;;;;;;22.23;15.57;;;;;;;;;;4989823;28;20203;-79
2023/12/18 11:46:33;;;;;;;20.83;15.63;;;;;;;;;;4971560;28;20176;-78
2023/12/18 11:49:03;;;;;;;19.53;15.40;;;;;;;;;;4972438;28;20581;-78
2023/12/18 11:51:30;;;;;;;24.87;16.03;;;;;;;;;;4986118;28;20656;-79
2023/12/18 11:54:00;;;;;;;18.77;14.37;;;;;;;;;;4988512;28;20211;-79
2023/12/18 11:56:42;;;;;;;17.73;13.47;;;;;;;;;;4989434;28;20198;-79
2023/12/18 11:59:08;;;;;;;18.70;13.37;;;;;;;;;;4987901;28;20223;-78
2023/12/18 12:01:35;;;;;;;18.53;13.30;;;;;;;;;;4986093;28;20207;-79
2023/12/18 12:04:01;;;;;;;15.50;12.90;;;;;;;;;;4963528;28;20202;-79
2023/12/18 12:06:27;;;;;;;15.27;12.47;;;;;;;;;;4972250;28;20683;-79
2023/12/18 12:08:53;;;;;;;16.90;12.97;;;;;;;;;;4972076;28;20191;-79
2023/12/18 12:11:22;;;;;;;16.40;12.33;;;;;;;;;;4987130;28;20234;-79
2023/12/18 12:13:53;;;;;;;17.03;13.30;;;;;;;;;;4989358;28;20237;-79
2023/12/18 12:16:20;;;;;;;15.63;12.80;;;;;;;;;;4990084;28;20196;-79
2023/12/18 12:18:56;;;;;;;17.70;13.87;;;;;;;;;;4987954;28;20214;-79
2023/12/18 12:21:24;;;;;;;19.37;13.40;;;;;;;;;;4986757;28;20686;-79
2023/12/18 12:23:50;;;;;;;16.57;12.60;;;;;;;;;;4986826;28;20550;-79
2023/12/18 12:26:18;;;;;;;14.67;11.80;;;;;;;;;;4986063;28;20176;-79
2023/12/18 12:28:44;;;;;;;16.80;13.03;;;;;;;;;;4966702;28;20695;-79
2023/12/18 12:31:10;;;;;;;16.23;12.63;;;;;;;;;;4986831;28;20200;-79
2023/12/18 12:33:43;;;;;;;13.70;11.17;;;;;;;;;;4988490;28;20187;-79
2023/12/18 12:36:09;;;;;;;14.13;11.30;;;;;;;;;;4970735;28;20214;-78
2023/12/18 12:38:43;;;;;;;15.07;11.50;;;;;;;;;;4970618;28;20679;-79
2023/12/18 12:41:10;;;;;;;14.50;11.50;;;;;;;;;;4986870;28;20250;-79
2023/12/18 12:43:36;;;;;;;13.83;11.07;;;;;;;;;;4986396;28;20560;-79
2023/12/18 12:46:02;;;;;;;12.83;10.23;;;;;;;;;;4987073;28;20932;-79
2023/12/18 12:48:28;;;;;;;14.73;11.07;;;;;;;;;;4987548;28;20188;-78
2023/12/18 12:50:55;;;;;;;13.87;10.43;;;;;;;;;;4986096;28;20730;-79
2023/12/18 12:53:23;;;;;;;12.07;10.40;;;;;;;;;;4986885;28;20191;-79
2023/12/18 12:55:49;;;;;;;14.50;10.47;;;;;;;;;;4986709;28;20242;-79
2023/12/18 12:58:16;;;;;;;13.77;10.73;;;;;;;;;;4987472;28;20224;-79
2023/12/18 13:00:42;;;;;;;12.53;10.37;;;;;;;;;;4985676;28;20214;-79
2023/12/18 13:03:08;;;;;;;12.03;9.67;;;;;;;;;;4988162;28;20226;-78
2023/12/18 13:05:34;;;;;;;14.70;10.30;;;;;;;;;;4986725;28;20176;-78
2023/12/18 13:08:01;;;;;;;12.73;10.73;;;;;;;;;;4987739;28;20184;-78
2023/12/18 13:10:30;;;;;;;12.90;10.03;;;;;;;;;;4986615;28;20200;-79
2023/12/18 13:12:56;;;;;;;12.87;10.40;;;;;;;;;;4986855;28;20287;-78
2023/12/18 13:15:23;;;;;;;11.83;10.00;;;;;;;;;;4987018;28;20179;-78
2023/12/18 13:17:49;;;;;;;11.80;10.03;;;;;;;;;;4986477;28;20191;-78
2023/12/18 13:20:20;;;;;;;11.63;9.90;;;;;;;;;;4987705;28;20207;-78
2023/12/18 13:22:46;;;;;;;11.73;9.60;;;;;;;;;;4985393;28;20326;-81
2023/12/18 13:25:13;;;;;;;11.67;9.47;;;;;;;;;;4986948;28;20714;-86
2023/12/18 13:27:39;;;;;;;13.20;9.67;;;;;;;;;;4990457;28;20180;-77
2023/12/18 13:30:08;;;;;;;11.83;9.47;;;;;;;;;;4967284;28;20581;-74
2023/12/18 13:32:35;;;;;;;12.00;9.37;;;;;;;;;;4981319;28;20199;-73
2023/12/18 13:35:02;;;;;;;11.60;9.47;;;;;;;;;;4999689;28;20826;-74
2023/12/18 13:37:28;;;;;;;11.27;9.23;;;;;;;;;;4985655;28;20179;-74
2023/12/18 13:39:54;;;;;;;13.57;9.60;;;;;;;;;;4986145;28;20212;-73
2023/12/18 13:42:20;;;;;;;12.27;9.53;;;;;;;;;;4984968;28;20614;-73
2023/12/18 13:44:48;;;;;;;11.63;8.93;;;;;;;;;;4983999;28;20559;-73
2023/12/18 13:47:14;;;;;;;12.10;9.60;;;;;;;;;;4984271;28;20601;-73
2023/12/18 13:49:41;;;;;;;14.67;9.93;;;;;;;;;;4986381;28;20336;-74
2023/12/18 13:52:07;;;;;;;13.77;9.77;;;;;;;;;;4984701;28;20183;-74
2023/12/18 13:54:33;;;;;;;11.40;9.37;;;;;;;;;;4986161;28;20194;-74
2023/12/18 13:57:00;;;;;;;11.40;8.93;;;;;;;;;;4987514;28;20648;-74
2023/12/18 13:59:26;;;;;;;13.07;9.47;;;;;;;;;;4990249;28;20211;-74
2023/12/18 14:01:52;;;;;;;10.83;8.97;;;;;;;;;;4987933;28;20206;-74
2023/12/18 14:04:18;;;;;;;10.67;9.20;;;;;;;;;;4971282;28;20619;-74
2023/12/18 14:06:44;;;;;;;10.00;8.77;;;;;;;;;;4989762;28;20679;-74
2023/12/18 14:09:10;;;;;;;11.43;9.90;;;;;;;;;;4989228;28;20672;-73
2023/12/18 14:11:37;;;;;;;13.93;10.30;;;;;;;;;;4989332;28;20267;-73
2023/12/18 14:14:03;;;;;;;16.30;10.87;;;;;;;;;;4989111;28;20203;-74
2023/12/18 14:16:29;;;;;;;13.63;10.30;;;;;;;;;;4972357;28;20629;-74